Lake Leelanau, Michigan
Current Conditions -  °F | °C
As of 11:53 PM on Saturday 25 Oct 2014 (Local Time) from KTVC Reporting Station
Clear Clear  
Wind Chill: 52°   Ceiling: Unl
Heat Index: 52°   Visibility: 10mi
Dew Point: 31°   Wind: 10mph
Humidity: 45%   Direction: 310°NW
Pressure: 29.82"   Gusts: NA
Location:  44.98°N, 85.71°W
Report Text: KTVC 260353Z 31009KT 10SM CLR 11/M01 A2982 RMK AO2 SLP100 T01111006
Loading
Personal Weather Stations






























Interactive Weather Map
Tropical Storm Tracking
New forecast layout! Learn more

10-Day Weather Forecast

Advertisements
Track Severe Weather on mobile